createdAt,value
2022-11-29T00:01:35.458Z,94980.80
2022-11-29T00:04:03.458Z,94975.80
2022-11-29T00:06:33.590Z,94974.60
2022-11-29T00:09:06.451Z,94975.60
2022-11-29T00:11:56.063Z,94971.20
2022-11-29T00:14:24.511Z,94973.20
2022-11-29T00:16:57.222Z,94970.00
2022-11-29T00:19:23.865Z,94970.00
2022-11-29T00:21:50.876Z,94968.00
2022-11-29T00:24:17.886Z,94967.40
2022-11-29T00:26:44.666Z,94962.60
2022-11-29T00:29:12.954Z,94961.20
2022-11-29T00:31:40.546Z,94963.20
2022-11-29T00:34:08.052Z,94964.80
2022-11-29T00:36:35.721Z,94963.40
2022-11-29T00:39:05.047Z,94962.20
2022-11-29T00:41:32.647Z,94962.40
2022-11-29T00:43:59.383Z,94963.20
2022-11-29T00:46:26.093Z,94963.00
2022-11-29T00:48:52.719Z,94963.00
2022-11-29T00:51:19.381Z,94957.20
2022-11-29T00:53:45.998Z,94958.60
2022-11-29T00:56:12.837Z,94962.60
2022-11-29T00:58:39.587Z,94961.40
2022-11-29T01:01:06.368Z,94958.60
2022-11-29T01:03:33.110Z,94960.80
2022-11-29T01:06:06.951Z,94960.60
2022-11-29T01:08:34.003Z,94965.00
2022-11-29T01:11:35.683Z,94963.00
2022-11-29T01:14:04.051Z,94960.60
2022-11-29T01:16:31.642Z,94961.60
2022-11-29T01:18:58.438Z,94962.40
2022-11-29T01:21:25.131Z,94964.40
2022-11-29T01:23:53.709Z,94962.00
2022-11-29T01:26:28.729Z,94961.20
2022-11-29T01:28:57.370Z,94961.80
2022-11-29T01:31:32.968Z,94961.80
2022-11-29T01:34:02.638Z,94958.80
2022-11-29T01:36:30.542Z,94963.20
2022-11-29T01:39:00.634Z,94961.60
2022-11-29T01:41:31.130Z,94961.20
2022-11-29T01:44:20.732Z,94957.40
2022-11-29T01:46:48.306Z,94958.80
2022-11-29T01:49:27.341Z,94957.00
2022-11-29T01:52:21.568Z,94952.80
2022-11-29T01:54:54.335Z,94955.20
2022-11-29T01:57:22.023Z,94956.80
2022-11-29T01:59:55.044Z,94952.80
2022-11-29T02:02:37.174Z,94951.60
2022-11-29T02:05:05.360Z,94948.80
2022-11-29T02:07:32.178Z,94951.20
2022-11-29T02:09:58.987Z,94950.20
2022-11-29T02:12:53.405Z,94949.40
2022-11-29T02:15:46.773Z,94953.40
2022-11-29T02:19:12.350Z,94950.40
2022-11-29T02:22:13.636Z,94951.60
2022-11-29T02:25:24.547Z,94947.80
2022-11-29T02:28:26.096Z,94948.80
2022-11-29T02:31:30.030Z,94947.40
2022-11-29T02:34:16.585Z,94949.60
2022-11-29T02:37:28.517Z,94948.60
2022-11-29T02:40:23.002Z,94951.00
2022-11-29T02:43:22.675Z,94949.40
2022-11-29T02:46:13.808Z,94948.20
2022-11-29T02:48:58.274Z,94948.00
2022-11-29T02:52:10.464Z,94950.60
2022-11-29T02:54:55.441Z,94951.20
2022-11-29T02:57:30.682Z,94952.60
2022-11-29T03:00:34.891Z,94955.60
2022-11-29T03:03:21.780Z,94951.60
2022-11-29T03:06:09.002Z,94952.80
2022-11-29T03:08:49.921Z,94957.00
2022-11-29T03:11:19.852Z,94961.40
2022-11-29T03:14:17.258Z,94960.40
2022-11-29T03:17:03.153Z,94961.00
2022-11-29T03:20:07.392Z,94965.60
2022-11-29T03:23:26.164Z,94968.20
2022-11-29T03:26:05.341Z,94973.60
2022-11-29T03:28:55.386Z,94975.40
2022-11-29T03:31:37.817Z,94976.00
2022-11-29T03:34:47.721Z,94977.20
2022-11-29T03:37:26.177Z,94975.20
2022-11-29T03:40:13.644Z,94972.20
2022-11-29T03:43:04.445Z,94974.20
2022-11-29T03:45:39.101Z,94974.00
2022-11-29T03:48:21.129Z,94975.40
2022-11-29T03:50:57.118Z,94976.40
2022-11-29T03:53:48.413Z,94980.60
2022-11-29T03:56:38.097Z,94981.80
2022-11-29T03:59:25.612Z,94981.60
2022-11-29T04:02:09.933Z,94984.00
2022-11-29T04:05:12.929Z,94977.60
2022-11-29T04:07:54.703Z,94978.20
2022-11-29T04:11:04.710Z,94975.00
2022-11-29T04:13:47.072Z,94973.60
2022-11-29T04:16:41.934Z,94974.60
2022-11-29T04:20:01.076Z,94975.60
2022-11-29T04:22:39.803Z,94975.20
2022-11-29T04:25:46.882Z,94970.80
2022-11-29T04:28:54.664Z,94968.00
2022-11-29T04:31:41.093Z,94971.20
2022-11-29T04:34:36.021Z,94971.40
2022-11-29T04:37:40.258Z,94972.20
2022-11-29T04:40:57.073Z,94977.40
2022-11-29T04:44:36.761Z,94972.80
2022-11-29T04:47:29.804Z,94976.00
2022-11-29T04:50:30.433Z,94975.80
2022-11-29T04:53:21.356Z,94974.60
2022-11-29T04:56:18.670Z,94974.60
2022-11-29T04:59:12.895Z,94975.20
2022-11-29T05:02:17.660Z,94976.20
2022-11-29T05:05:24.793Z,94982.80
2022-11-29T05:08:19.707Z,94978.80
2022-11-29T05:10:56.319Z,94984.00
2022-11-29T05:13:59.122Z,94987.40
2022-11-29T05:16:49.240Z,94985.20
2022-11-29T05:19:53.700Z,94986.40
2022-11-29T05:22:31.225Z,94989.80
2022-11-29T05:25:31.560Z,94988.00
2022-11-29T05:28:37.888Z,94989.80
2022-11-29T05:31:50.282Z,94990.80
2022-11-29T05:34:44.833Z,94993.40
2022-11-29T05:37:32.807Z,94993.40
2022-11-29T05:41:04.010Z,94993.60
2022-11-29T05:44:09.382Z,94994.00
2022-11-29T05:47:10.267Z,95001.40
2022-11-29T05:50:24.947Z,95000.00
2022-11-29T05:53:12.005Z,95006.80
2022-11-29T05:56:01.826Z,95004.80
2022-11-29T05:58:41.103Z,95007.00
2022-11-29T06:01:22.081Z,95011.40
2022-11-29T06:04:19.326Z,95011.80
2022-11-29T06:07:05.796Z,95012.40
2022-11-29T06:09:40.909Z,95013.60
2022-11-29T06:12:20.986Z,95008.40
2022-11-29T06:15:17.261Z,95012.80
2022-11-29T06:18:03.194Z,95014.60
2022-11-29T06:20:43.012Z,95016.40
2022-11-29T06:23:23.255Z,95018.00
2022-11-29T06:26:44.999Z,95021.60
2022-11-29T06:29:33.432Z,95022.00
2022-11-29T06:32:19.466Z,95021.20
2022-11-29T06:35:01.325Z,95023.00
2022-11-29T06:37:38.726Z,95022.60
2022-11-29T06:40:10.559Z,95026.60
2022-11-29T06:42:37.193Z,95028.40
2022-11-29T06:45:05.039Z,95032.80
2022-11-29T06:47:53.163Z,95031.80
2022-11-29T06:51:03.949Z,95031.00
2022-11-29T06:53:57.977Z,95032.80
2022-11-29T06:56:56.042Z,95030.40
2022-11-29T06:59:37.898Z,95031.80
2022-11-29T07:02:38.962Z,95038.60
2022-11-29T07:05:30.310Z,95037.00
2022-11-29T07:08:03.762Z,95039.40
2022-11-29T07:10:34.143Z,95042.80
2022-11-29T07:13:01.237Z,95042.00
2022-11-29T07:15:28.681Z,95044.00
2022-11-29T07:18:01.361Z,95044.40
2022-11-29T07:20:39.741Z,95046.40
2022-11-29T07:23:12.461Z,95048.80
2022-11-29T07:26:17.307Z,95050.20
2022-11-29T07:29:08.754Z,95052.20
2022-11-29T07:32:26.366Z,95055.60
2022-11-29T07:35:25.119Z,95050.80
2022-11-29T07:38:06.999Z,95053.60
2022-11-29T07:40:39.558Z,95052.00
2022-11-29T07:43:27.584Z,95053.80
2022-11-29T07:45:56.306Z,95051.80
2022-11-29T07:48:23.205Z,95050.20
2022-11-29T07:50:49.905Z,95050.40
2022-11-29T07:53:20.140Z,95054.60
2022-11-29T07:55:48.438Z,95056.80
2022-11-29T07:58:17.654Z,95055.40
2022-11-29T08:00:45.279Z,95056.80
2022-11-29T08:03:12.825Z,95056.60
2022-11-29T08:05:40.811Z,95058.00
2022-11-29T08:08:07.876Z,95061.80
2022-11-29T08:10:35.490Z,95061.40
2022-11-29T08:13:02.258Z,95058.80
2022-11-29T08:15:29.073Z,95060.20
2022-11-29T08:17:56.113Z,95061.00
2022-11-29T08:20:23.104Z,95068.00
2022-11-29T08:23:00.320Z,95065.40
2022-11-29T08:25:28.255Z,95070.40
2022-11-29T08:27:56.338Z,95071.00
2022-11-29T08:30:23.427Z,95074.00
2022-11-29T08:32:51.987Z,95075.40
2022-11-29T08:35:21.820Z,95071.00
2022-11-29T08:37:48.605Z,95074.80
2022-11-29T08:40:16.445Z,95070.60
2022-11-29T08:42:43.305Z,95071.40
2022-11-29T08:45:12.051Z,95072.20
2022-11-29T08:47:41.039Z,95073.60
2022-11-29T08:50:15.542Z,95074.00
2022-11-29T08:53:05.445Z,95072.80
2022-11-29T08:55:43.049Z,95076.80
2022-11-29T08:58:13.808Z,95073.20
2022-11-29T09:00:43.846Z,95077.40
2022-11-29T09:03:29.217Z,95077.60
2022-11-29T09:05:57.638Z,95081.60
2022-11-29T09:08:24.313Z,95080.60
2022-11-29T09:10:50.963Z,95080.20
2022-11-29T09:13:18.222Z,95088.20
2022-11-29T09:15:45.114Z,95086.40
2022-11-29T09:18:11.801Z,95090.60
2022-11-29T09:20:38.504Z,95091.60
2022-11-29T09:23:05.160Z,95093.80
2022-11-29T09:25:31.950Z,95093.20
2022-11-29T09:28:01.854Z,95093.80
2022-11-29T09:30:31.494Z,95095.00
2022-11-29T09:33:05.065Z,95095.80
2022-11-29T09:35:33.533Z,95097.20
2022-11-29T09:38:00.256Z,95101.40
2022-11-29T09:40:37.753Z,95102.40
2022-11-29T09:43:41.020Z,95104.80
2022-11-29T09:46:58.998Z,95099.20
2022-11-29T09:49:43.765Z,95096.80
2022-11-29T09:52:33.588Z,95100.20
2022-11-29T09:55:25.144Z,95099.20
2022-11-29T09:57:54.997Z,95099.80
2022-11-29T10:00:21.602Z,95108.00
2022-11-29T10:02:56.926Z,95106.00
2022-11-29T10:05:44.193Z,95107.20
2022-11-29T10:08:23.319Z,95111.60
2022-11-29T10:10:55.732Z,95110.60
2022-11-29T10:13:34.368Z,95107.20
2022-11-29T10:16:23.072Z,95103.80
2022-11-29T10:19:24.575Z,95101.40
2022-11-29T10:22:02.919Z,95101.00
2022-11-29T10:24:32.039Z,95101.40
2022-11-29T10:26:58.743Z,95099.80
2022-11-29T10:29:25.901Z,95099.60
2022-11-29T10:31:56.816Z,95093.00
2022-11-29T10:34:26.779Z,95100.80
2022-11-29T10:36:59.824Z,95098.00
2022-11-29T10:39:57.479Z,95095.00
2022-11-29T10:42:47.050Z,95089.40
2022-11-29T10:45:30.849Z,95092.40
2022-11-29T10:48:16.970Z,95087.40
2022-11-29T10:50:48.714Z,95087.60
2022-11-29T10:53:25.382Z,95085.40
2022-11-29T10:56:06.506Z,95087.00
2022-11-29T10:58:33.172Z,95087.20
2022-11-29T11:01:07.179Z,95082.20
2022-11-29T11:03:35.651Z,95085.80
2022-11-29T11:06:18.702Z,95088.60
2022-11-29T11:08:54.028Z,95086.40
2022-11-29T11:11:31.741Z,95089.00
2022-11-29T11:14:03.426Z,95089.80
2022-11-29T11:16:34.295Z,95088.20
2022-11-29T11:19:31.369Z,95090.80
2022-11-29T11:22:01.395Z,95089.40
2022-11-29T11:24:36.233Z,95097.40
2022-11-29T11:27:03.644Z,95092.00
2022-11-29T11:29:41.618Z,95090.80
2022-11-29T11:32:19.557Z,95096.00
2022-11-29T11:34:57.212Z,95099.20
2022-11-29T11:37:29.276Z,95096.80
2022-11-29T11:40:20.573Z,95099.20
2022-11-29T11:42:47.252Z,95095.00
2022-11-29T11:45:13.841Z,95095.00
2022-11-29T11:47:46.709Z,95097.80
2022-11-29T11:50:34.334Z,95098.00
2022-11-29T11:53:06.692Z,95104.20
2022-11-29T11:55:35.000Z,95101.20
2022-11-29T11:58:13.469Z,95099.40
2022-11-29T12:01:05.845Z,95098.60
2022-11-29T12:03:53.046Z,95103.80
2022-11-29T12:06:41.595Z,95106.80
2022-11-29T12:09:08.464Z,95102.60
2022-11-29T12:12:03.864Z,95104.80
2022-11-29T12:14:45.593Z,95103.00
2022-11-29T12:17:38.662Z,95099.80
2022-11-29T12:20:31.156Z,95105.80
2022-11-29T12:23:13.155Z,95102.00
2022-11-29T12:25:53.830Z,95106.20
2022-11-29T12:28:22.714Z,95108.20
2022-11-29T12:31:20.103Z,95102.20
2022-11-29T12:34:10.879Z,95099.00
2022-11-29T12:37:04.825Z,95105.00
2022-11-29T12:40:01.802Z,95106.40
2022-11-29T12:42:40.739Z,95110.00
2022-11-29T12:45:40.576Z,95111.80
2022-11-29T12:48:27.078Z,95107.60
2022-11-29T12:51:23.680Z,95113.60
2022-11-29T12:54:20.045Z,95111.60
2022-11-29T12:57:28.603Z,95114.40
2022-11-29T13:00:01.189Z,95115.40
2022-11-29T13:03:02.677Z,95117.00
2022-11-29T13:06:08.063Z,95120.20
2022-11-29T13:09:24.262Z,95119.60
2022-11-29T13:12:05.111Z,95120.20
2022-11-29T13:14:45.491Z,95121.00
2022-11-29T13:17:47.019Z,95123.20
2022-11-29T13:20:25.820Z,95126.80
2022-11-29T13:23:16.284Z,95125.00
2022-11-29T13:25:47.667Z,95128.80
2022-11-29T13:28:26.612Z,95129.00
2022-11-29T13:31:03.442Z,95126.20
2022-11-29T13:33:52.202Z,95126.20
2022-11-29T13:36:24.951Z,95130.60
2022-11-29T13:39:14.439Z,95130.40
2022-11-29T13:41:54.725Z,95133.00
2022-11-29T13:44:39.486Z,95136.80
2022-11-29T13:47:12.776Z,95142.00
2022-11-29T13:50:02.564Z,95142.20
2022-11-29T13:52:43.378Z,95143.40
2022-11-29T13:55:12.675Z,95144.60
2022-11-29T13:58:16.871Z,95145.20
2022-11-29T14:00:44.591Z,95145.20
2022-11-29T14:03:20.970Z,95142.80
2022-11-29T14:05:51.950Z,95146.00
2022-11-29T14:11:42.470Z,95148.20
2022-11-29T14:14:20.311Z,95149.20
2022-11-29T14:16:52.465Z,95143.20
2022-11-29T14:19:21.100Z,95142.80
2022-11-29T14:22:03.132Z,95146.80
2022-11-29T14:24:32.798Z,95147.80
2022-11-29T14:27:14.428Z,95149.60
2022-11-29T14:29:50.239Z,95152.60
2022-11-29T14:32:42.807Z,95159.00
2022-11-29T14:35:12.538Z,95166.60
2022-11-29T14:38:19.391Z,95166.20
2022-11-29T14:40:59.953Z,95166.40
2022-11-29T14:43:33.513Z,95168.80
2022-11-29T14:46:31.078Z,95170.20
2022-11-29T14:49:03.798Z,95169.40
2022-11-29T14:51:34.050Z,95170.60
2022-11-29T14:54:13.204Z,95174.40
2022-11-29T14:56:44.482Z,95178.40
2022-11-29T14:59:47.149Z,95174.80
2022-11-29T15:02:19.914Z,95180.80
2022-11-29T15:04:50.997Z,95178.80
2022-11-29T15:07:29.349Z,95184.00
2022-11-29T15:10:04.431Z,95181.40
2022-11-29T15:12:36.226Z,95184.40
2022-11-29T15:15:21.774Z,95185.80
2022-11-29T15:17:48.363Z,95186.80
2022-11-29T15:20:28.036Z,95187.80
2022-11-29T15:22:59.579Z,95190.80
2022-11-29T15:25:31.233Z,95190.80
2022-11-29T15:28:05.764Z,95191.40
2022-11-29T15:30:42.325Z,95193.80
2022-11-29T15:33:22.393Z,95195.80
2022-11-29T15:35:53.266Z,95195.00
2022-11-29T15:38:22.590Z,95194.40
2022-11-29T15:40:55.271Z,95204.40
2022-11-29T15:43:30.622Z,95214.60
2022-11-29T15:45:58.957Z,95216.00
2022-11-29T15:48:31.499Z,95221.80
2022-11-29T15:51:23.258Z,95224.00
2022-11-29T15:54:10.158Z,95229.00
2022-11-29T15:56:48.945Z,95230.40
2022-11-29T15:59:38.370Z,95231.80
2022-11-29T16:02:32.515Z,95237.00
2022-11-29T16:05:35.702Z,95233.20
2022-11-29T16:08:17.809Z,95236.20
2022-11-29T16:10:49.433Z,95234.40
2022-11-29T16:13:25.425Z,95237.20
2022-11-29T16:16:06.256Z,95235.40
2022-11-29T16:18:33.857Z,95235.40
2022-11-29T16:21:04.272Z,95239.00
2022-11-29T16:23:41.209Z,95240.60
2022-11-29T16:26:15.583Z,95239.00
2022-11-29T16:28:46.554Z,95235.00
2022-11-29T16:31:18.946Z,95236.00
2022-11-29T16:33:47.582Z,95237.60
2022-11-29T16:36:24.415Z,95241.80
2022-11-29T16:39:06.392Z,95241.80
2022-11-29T16:41:37.260Z,95242.60
2022-11-29T16:44:07.316Z,95243.00
2022-11-29T16:46:40.021Z,95241.80
2022-11-29T16:49:34.837Z,95241.80
2022-11-29T16:52:04.302Z,95236.00
2022-11-29T16:54:35.465Z,95238.20
2022-11-29T16:57:05.659Z,95238.40
2022-11-29T16:59:32.809Z,95241.00
2022-11-29T17:01:59.553Z,95249.60
2022-11-29T17:04:26.596Z,95254.00
2022-11-29T17:06:55.389Z,95255.20
2022-11-29T17:09:31.288Z,95252.80
2022-11-29T17:12:01.877Z,95249.80
2022-11-29T17:14:29.607Z,95251.00
2022-11-29T17:16:56.441Z,95253.40
2022-11-29T17:19:24.144Z,95259.80
2022-11-29T17:21:52.855Z,95261.80
2022-11-29T17:24:22.671Z,95255.00
2022-11-29T17:26:50.423Z,95254.20
2022-11-29T17:29:18.294Z,95263.40
2022-11-29T17:31:46.532Z,95264.00
2022-11-29T17:34:13.271Z,95264.00
2022-11-29T17:36:40.927Z,95273.60
2022-11-29T17:39:08.314Z,95276.80
2022-11-29T17:41:35.173Z,95270.00
2022-11-29T17:44:02.202Z,95271.20
2022-11-29T17:46:32.502Z,95271.40
2022-11-29T17:49:02.083Z,95276.20
2022-11-29T17:51:51.187Z,95277.00
2022-11-29T17:54:16.305Z,95280.00
2022-11-29T17:56:43.059Z,95285.80
2022-11-29T17:59:09.682Z,95289.40
2022-11-29T18:01:36.831Z,95288.80
2022-11-29T18:04:05.819Z,95291.00
2022-11-29T18:06:40.748Z,95295.00
2022-11-29T18:09:10.660Z,95294.40
2022-11-29T18:11:47.664Z,95290.40
2022-11-29T18:14:23.844Z,95290.40
2022-11-29T18:16:51.659Z,95294.60
2022-11-29T18:19:21.605Z,95301.40
2022-11-29T18:21:49.661Z,95304.80
2022-11-29T18:24:16.724Z,95307.20
2022-11-29T18:26:43.843Z,95309.80
2022-11-29T18:29:10.792Z,95314.00
2022-11-29T18:31:41.104Z,95315.60
2022-11-29T18:34:10.899Z,95323.00
2022-11-29T18:36:48.856Z,95318.20
2022-11-29T18:39:19.032Z,95311.20
2022-11-29T18:41:48.944Z,95316.60
2022-11-29T18:44:18.889Z,95314.20
2022-11-29T18:46:46.143Z,95317.00
2022-11-29T18:49:16.044Z,95319.60
2022-11-29T18:51:44.972Z,95320.40
2022-11-29T18:54:12.914Z,95320.00
2022-11-29T18:56:39.800Z,95323.00
2022-11-29T18:59:16.763Z,95324.20
2022-11-29T19:01:45.868Z,95320.60
2022-11-29T19:04:16.814Z,95318.20
2022-11-29T19:06:44.127Z,95317.00
2022-11-29T19:09:23.782Z,95318.00
2022-11-29T19:11:51.076Z,95315.80
2022-11-29T19:14:18.677Z,95314.80
2022-11-29T19:16:47.655Z,95316.00
2022-11-29T19:19:14.337Z,95320.20
2022-11-29T19:21:42.139Z,95323.60
2022-11-29T19:24:14.900Z,95328.20
2022-11-29T19:26:44.939Z,95326.40
2022-11-29T19:29:13.690Z,95325.40
2022-11-29T19:31:40.898Z,95330.40
2022-11-29T19:34:07.673Z,95335.40
2022-11-29T19:36:34.526Z,95334.20
2022-11-29T19:39:02.811Z,95326.80
2022-11-29T19:41:32.716Z,95325.80
2022-11-29T19:44:04.395Z,95331.00
2022-11-29T19:46:35.396Z,95332.80
2022-11-29T19:49:05.030Z,95334.00
2022-11-29T19:51:32.727Z,95331.40
2022-11-29T19:54:02.739Z,95335.20
2022-11-29T19:56:30.929Z,95339.20
2022-11-29T19:58:59.918Z,95339.20
2022-11-29T20:01:37.802Z,95339.20
2022-11-29T20:04:07.394Z,95342.60
2022-11-29T20:06:34.160Z,95344.60
2022-11-29T20:09:00.842Z,95342.00
2022-11-29T20:11:27.593Z,95342.60
2022-11-29T20:13:59.647Z,95344.20
2022-11-29T20:16:27.969Z,95347.40
2022-11-29T20:18:55.694Z,95345.60
2022-11-29T20:21:27.025Z,95347.40
2022-11-29T20:24:05.793Z,95349.60
2022-11-29T20:26:35.466Z,95349.60
2022-11-29T20:29:02.772Z,95351.00
2022-11-29T20:31:32.265Z,95350.40
2022-11-29T20:33:59.235Z,95358.00
2022-11-29T20:37:00.854Z,95356.80
2022-11-29T20:39:45.648Z,95354.40
2022-11-29T20:42:56.683Z,95362.60
2022-11-29T20:45:24.795Z,95364.20
2022-11-29T20:48:19.563Z,95366.40
2022-11-29T20:50:56.889Z,95370.60
2022-11-29T20:53:44.557Z,95366.40
2022-11-29T20:56:12.174Z,95372.00
2022-11-29T20:58:39.168Z,95371.00
2022-11-29T21:01:07.339Z,95372.20
2022-11-29T21:03:34.036Z,95371.00
2022-11-29T21:06:04.101Z,95376.60
2022-11-29T21:08:31.697Z,95380.60
2022-11-29T21:11:08.114Z,95378.60
2022-11-29T21:13:35.457Z,95375.40
2022-11-29T21:16:03.391Z,95371.80
2022-11-29T21:18:31.906Z,95377.00
2022-11-29T21:22:02.238Z,95380.00
2022-11-29T21:24:49.897Z,95381.40
2022-11-29T21:27:29.189Z,95379.00
2022-11-29T21:29:56.268Z,95379.80
2022-11-29T21:32:25.457Z,95379.80
2022-11-29T21:34:52.862Z,95375.40
2022-11-29T21:37:23.018Z,95380.20
2022-11-29T21:39:51.532Z,95377.40
2022-11-29T21:42:18.643Z,95373.80
2022-11-29T21:44:45.598Z,95379.60
2022-11-29T21:47:12.753Z,95379.60
2022-11-29T21:49:40.033Z,95384.20
2022-11-29T21:52:06.996Z,95384.40
2022-11-29T21:54:33.762Z,95382.60
2022-11-29T21:57:01.813Z,95384.20
2022-11-29T21:59:29.087Z,95386.60
2022-11-29T22:01:55.831Z,95390.60
2022-11-29T22:04:22.852Z,95388.80
2022-11-29T22:06:49.558Z,95384.20
2022-11-29T22:09:16.491Z,95390.40
2022-11-29T22:11:43.251Z,95386.20
2022-11-29T22:14:18.893Z,95385.40
2022-11-29T22:16:53.550Z,95386.00
2022-11-29T22:19:30.015Z,95389.80
2022-11-29T22:22:02.936Z,95388.80
2022-11-29T22:24:33.527Z,95388.00
2022-11-29T22:27:00.421Z,95385.40
2022-11-29T22:29:27.356Z,95385.40
2022-11-29T22:31:56.259Z,95380.80
2022-11-29T22:34:26.867Z,95386.00
2022-11-29T22:36:53.899Z,95385.80
2022-11-29T22:39:22.729Z,95383.80
2022-11-29T22:41:53.935Z,95386.40
2022-11-29T22:44:23.039Z,95391.80
2022-11-29T22:46:50.070Z,95393.20
2022-11-29T22:49:16.733Z,95386.40
2022-11-29T22:51:43.992Z,95386.80
2022-11-29T22:54:11.765Z,95384.80
2022-11-29T22:56:41.386Z,95385.40
2022-11-29T22:59:08.393Z,95385.60
2022-11-29T23:01:38.780Z,95386.80
2022-11-29T23:04:10.977Z,95388.00
2022-11-29T23:06:43.959Z,95386.60
2022-11-29T23:09:18.979Z,95388.40
2022-11-29T23:11:46.450Z,95388.80
2022-11-29T23:14:13.571Z,95384.20
2022-11-29T23:16:40.973Z,95384.20
2022-11-29T23:19:07.691Z,95387.80
2022-11-29T23:21:38.313Z,95385.80
2022-11-29T23:24:05.726Z,95385.00
2022-11-29T23:26:40.112Z,95388.00
2022-11-29T23:29:11.108Z,95387.40
2022-11-29T23:31:38.719Z,95391.20
2022-11-29T23:34:05.795Z,95383.00
2022-11-29T23:36:33.062Z,95387.80
2022-11-29T23:39:00.429Z,95388.20
2022-11-29T23:41:27.104Z,95387.80
2022-11-29T23:43:53.830Z,95388.40
2022-11-29T23:46:24.125Z,95388.80
2022-11-29T23:48:52.281Z,95398.40
2022-11-29T23:51:20.019Z,95397.40
2022-11-29T23:53:52.419Z,95400.80
2022-11-29T23:56:20.228Z,95398.80
2022-11-29T23:58:47.161Z,95401.00
